createdAt,value
2023-04-11T00:00:17.558Z,101261.25
2023-04-11T00:03:07.405Z,101269.19
2023-04-11T00:05:35.964Z,101262.97
2023-04-11T00:08:04.587Z,101268.25
2023-04-11T00:10:32.835Z,101260.38
2023-04-11T00:13:01.436Z,101256.78
2023-04-11T00:15:29.719Z,101254.16
2023-04-11T00:17:58.794Z,101249.72
2023-04-11T00:20:27.186Z,101245.28
2023-04-11T00:22:55.773Z,101245.34
2023-04-11T00:25:24.370Z,101251.50
2023-04-11T00:27:52.946Z,101262.13
2023-04-11T00:30:21.335Z,101248.00
2023-04-11T00:32:50.361Z,101240.94
2023-04-11T00:35:18.701Z,101243.63
2023-04-11T00:37:49.823Z,101257.75
2023-04-11T00:40:18.980Z,101249.78
2023-04-11T00:42:48.232Z,101237.47
2023-04-11T00:45:18.743Z,101236.59
2023-04-11T00:47:47.437Z,101240.06
2023-04-11T00:50:16.200Z,101237.38
2023-04-11T00:52:48.557Z,101233.03
2023-04-11T00:55:17.191Z,101243.56
2023-04-11T00:57:45.801Z,101241.84
2023-04-11T01:00:14.864Z,101233.03
2023-04-11T01:02:43.851Z,101231.28
2023-04-11T01:05:15.614Z,101218.97
2023-04-11T01:07:47.284Z,101223.31
2023-04-11T01:10:16.728Z,101226.91
2023-04-11T01:12:46.893Z,101225.97
2023-04-11T01:15:15.467Z,101223.31
2023-04-11T01:17:44.188Z,101220.66
2023-04-11T01:20:13.133Z,101210.13
2023-04-11T01:22:42.197Z,101208.34
2023-04-11T01:25:10.856Z,101218.97
2023-04-11T01:27:39.444Z,101199.50
2023-04-11T01:30:08.904Z,101194.25
2023-04-11T01:32:37.458Z,101179.19
2023-04-11T01:35:06.492Z,101163.31
2023-04-11T01:37:35.166Z,101159.78
2023-04-11T01:40:05.862Z,101149.19
2023-04-11T01:42:34.877Z,101142.09
2023-04-11T01:45:04.746Z,101145.56
2023-04-11T01:47:35.342Z,101150.03
2023-04-11T01:50:03.748Z,101161.50
2023-04-11T01:52:32.430Z,101163.31
2023-04-11T01:55:00.644Z,101166.84
2023-04-11T01:57:29.199Z,101183.63
2023-04-11T01:59:57.418Z,101176.63
2023-04-11T02:02:26.263Z,101185.47
2023-04-11T02:04:54.703Z,101187.19
2023-04-11T02:07:23.740Z,101181.88
2023-04-11T02:09:51.953Z,101196.94
2023-04-11T02:12:20.573Z,101193.41
2023-04-11T02:14:50.052Z,101193.41
2023-04-11T02:17:22.610Z,101188.13
2023-04-11T02:19:51.982Z,101189.03
2023-04-11T02:22:20.632Z,101194.34
2023-04-11T02:24:48.822Z,101184.59
2023-04-11T02:27:17.672Z,101173.19
2023-04-11T02:29:46.025Z,101170.44
2023-04-11T02:32:14.701Z,101159.84
2023-04-11T02:34:42.944Z,101155.44
2023-04-11T02:37:11.514Z,101144.00
2023-04-11T02:39:39.666Z,101142.25
2023-04-11T02:42:08.209Z,101152.78
2023-04-11T02:44:36.434Z,101151.91
2023-04-11T02:47:05.755Z,101138.66
2023-04-11T02:49:34.322Z,101138.59
2023-04-11T02:52:03.303Z,101135.13
2023-04-11T02:54:31.532Z,101126.34
2023-04-11T02:57:02.553Z,101136.13
2023-04-11T02:59:31.352Z,101151.97
2023-04-11T03:02:02.108Z,101148.44
2023-04-11T03:04:31.999Z,101159.00
2023-04-11T03:07:12.750Z,101152.97
2023-04-11T03:09:41.099Z,101152.06
2023-04-11T03:12:09.742Z,101150.22
2023-04-11T03:14:47.988Z,101157.28
2023-04-11T03:17:16.576Z,101145.78
2023-04-11T03:19:44.900Z,101145.84
2023-04-11T03:22:13.764Z,101127.25
2023-04-11T03:24:42.985Z,101121.94
2023-04-11T03:27:11.558Z,101100.72
2023-04-11T03:29:43.124Z,101091.03
2023-04-11T03:32:19.266Z,101091.03
2023-04-11T03:34:47.525Z,101077.75
2023-04-11T03:37:16.298Z,101067.22
2023-04-11T03:39:44.963Z,101063.66
2023-04-11T03:42:13.958Z,101053.16
2023-04-11T03:44:43.127Z,101064.53
2023-04-11T03:47:12.040Z,101065.41
2023-04-11T03:49:44.279Z,101077.75
2023-04-11T03:52:17.709Z,101083.09
2023-04-11T03:54:48.546Z,101083.97
2023-04-11T03:57:18.699Z,101081.41
2023-04-11T03:59:48.150Z,101090.16
2023-04-11T04:02:17.949Z,101084.91
2023-04-11T04:04:59.022Z,101075.19
2023-04-11T04:07:33.845Z,101074.28
2023-04-11T04:10:11.191Z,101083.16
2023-04-11T04:12:41.510Z,101078.75
2023-04-11T04:15:16.442Z,101069.94
2023-04-11T04:17:48.206Z,101080.50
2023-04-11T04:20:27.132Z,101076.97
2023-04-11T04:23:00.421Z,101077.03
2023-04-11T04:25:51.351Z,101074.38
2023-04-11T04:28:26.348Z,101077.03
2023-04-11T04:30:58.310Z,101068.16
2023-04-11T04:33:33.307Z,101067.34
2023-04-11T04:36:05.986Z,101069.06
2023-04-11T04:38:38.811Z,101071.72
2023-04-11T04:41:22.346Z,101074.50
2023-04-11T04:43:58.694Z,101078.84
2023-04-11T04:46:42.722Z,101081.53
2023-04-11T04:49:11.506Z,101078.88
2023-04-11T04:51:42.384Z,101081.53
2023-04-11T04:54:11.313Z,101069.19
2023-04-11T04:56:39.685Z,101069.19
2023-04-11T04:59:14.961Z,101063.94
2023-04-11T05:01:45.961Z,101071.00
2023-04-11T05:04:15.101Z,101067.44
2023-04-11T05:06:51.203Z,101068.28
2023-04-11T05:09:20.245Z,101060.31
2023-04-11T05:11:50.947Z,101059.50
2023-04-11T05:14:22.675Z,101073.59
2023-04-11T05:16:51.433Z,101079.81
2023-04-11T05:19:20.977Z,101074.38
2023-04-11T05:21:51.914Z,101076.19
2023-04-11T05:24:20.712Z,101069.19
2023-04-11T05:26:50.579Z,101061.22
2023-04-11T05:29:21.284Z,101057.72
2023-04-11T05:31:50.804Z,101043.56
2023-04-11T05:34:19.772Z,101045.28
2023-04-11T05:36:51.220Z,101047.00
2023-04-11T05:39:19.815Z,101037.44
2023-04-11T05:41:48.005Z,101031.13
2023-04-11T05:44:16.545Z,101017.88
2023-04-11T05:46:44.757Z,101010.69
2023-04-11T05:49:13.333Z,101017.00
2023-04-11T05:51:41.573Z,101018.66
2023-04-11T05:54:10.113Z,101021.31
2023-04-11T05:56:39.969Z,101026.63
2023-04-11T05:59:08.595Z,101012.56
2023-04-11T06:01:40.071Z,101019.44
2023-04-11T06:04:08.971Z,101018.59
2023-04-11T06:06:37.444Z,101022.09
2023-04-11T06:09:06.075Z,101037.13
2023-04-11T06:11:34.368Z,101029.19
2023-04-11T06:14:03.057Z,101029.19
2023-04-11T06:16:33.689Z,101028.25
2023-04-11T06:19:05.183Z,101031.72
2023-04-11T06:21:33.397Z,101019.28
2023-04-11T06:24:09.849Z,101007.03
2023-04-11T06:26:38.305Z,101020.34
2023-04-11T06:29:07.684Z,101011.41
2023-04-11T06:31:36.361Z,101028.16
2023-04-11T06:34:05.113Z,101021.16
2023-04-11T06:36:33.734Z,101021.03
2023-04-11T06:39:02.386Z,101017.47
2023-04-11T06:41:31.105Z,101019.28
2023-04-11T06:43:59.834Z,101011.34
2023-04-11T06:46:28.265Z,100998.06
2023-04-11T06:48:56.907Z,100997.09
2023-04-11T06:51:25.258Z,100990.91
2023-04-11T06:53:54.517Z,100983.00
2023-04-11T06:56:23.017Z,100976.84
2023-04-11T06:58:51.773Z,100980.22
2023-04-11T07:01:21.310Z,100977.50
2023-04-11T07:03:50.497Z,100977.47
2023-04-11T07:06:20.098Z,100979.41
2023-04-11T07:08:48.687Z,100974.03
2023-04-11T07:11:18.550Z,100974.94
2023-04-11T07:13:50.497Z,100964.38
2023-04-11T07:16:18.871Z,100963.31
2023-04-11T07:18:48.219Z,100967.88
2023-04-11T07:21:16.506Z,100969.59
2023-04-11T07:23:45.173Z,100965.16
2023-04-11T07:26:14.676Z,100974.81
2023-04-11T07:28:44.517Z,100973.06
2023-04-11T07:31:14.259Z,100976.47
2023-04-11T07:33:45.884Z,100969.22
2023-04-11T07:36:14.173Z,100980.59
2023-04-11T07:38:42.949Z,100973.47
2023-04-11T07:41:11.380Z,100980.66
2023-04-11T07:43:41.101Z,100977.94
2023-04-11T07:46:09.450Z,100970.81
2023-04-11T07:48:38.042Z,100957.53
2023-04-11T07:51:06.489Z,100955.69
2023-04-11T07:53:35.098Z,100954.78
2023-04-11T07:56:03.328Z,100944.16
2023-04-11T07:58:32.284Z,100936.97
2023-04-11T08:01:02.399Z,100935.28
2023-04-11T08:03:31.290Z,100941.31
2023-04-11T08:05:59.796Z,100936.03
2023-04-11T08:08:28.376Z,100926.28
2023-04-11T08:10:56.639Z,100922.81
2023-04-11T08:13:25.156Z,100919.16
2023-04-11T08:15:53.396Z,100923.50
2023-04-11T08:18:21.906Z,100926.09
2023-04-11T08:20:50.213Z,100934.91
2023-04-11T08:23:19.888Z,100926.91
2023-04-11T08:25:48.146Z,100913.63
2023-04-11T08:28:16.813Z,100906.59
2023-04-11T08:30:45.131Z,100906.69
2023-04-11T08:33:14.749Z,100904.84
2023-04-11T08:35:43.352Z,100903.94
2023-04-11T08:38:12.050Z,100906.44
2023-04-11T08:40:40.456Z,100905.66
2023-04-11T08:43:12.377Z,100914.56
2023-04-11T08:45:41.303Z,100906.59
2023-04-11T08:48:12.501Z,100890.56
2023-04-11T08:50:44.339Z,100888.88
2023-04-11T08:53:13.537Z,100883.41
2023-04-11T08:55:47.193Z,100876.47
2023-04-11T08:58:16.506Z,100870.13
2023-04-11T09:00:45.499Z,100872.53
2023-04-11T09:03:16.424Z,100865.38
2023-04-11T09:05:48.755Z,100864.69
2023-04-11T09:08:17.691Z,100854.88
2023-04-11T09:10:46.849Z,100850.38
2023-04-11T09:13:24.050Z,100850.25
2023-04-11T09:16:13.104Z,100849.50
2023-04-11T09:18:44.593Z,100847.38
2023-04-11T09:21:17.347Z,100842.41
2023-04-11T09:23:46.255Z,100828.09
2023-04-11T09:26:29.918Z,100836.94
2023-04-11T09:28:58.852Z,100820.81
2023-04-11T09:31:46.726Z,100811.06
2023-04-11T09:34:24.091Z,100812.28
2023-04-11T09:36:56.527Z,100802.75
2023-04-11T09:39:28.674Z,100806.97
2023-04-11T09:41:57.774Z,100813.78
2023-04-11T09:44:37.686Z,100812.75
2023-04-11T09:47:06.147Z,100803.03
2023-04-11T09:49:35.673Z,100813.78
2023-04-11T09:52:04.384Z,100803.28
2023-04-11T09:54:33.514Z,100792.44
2023-04-11T09:57:03.717Z,100782.03
2023-04-11T09:59:33.182Z,100765.22
2023-04-11T10:02:01.936Z,100768.59
2023-04-11T10:04:30.633Z,100768.44
2023-04-11T10:07:14.460Z,100772.09
2023-04-11T10:09:43.856Z,100779.38
2023-04-11T10:12:12.382Z,100783.69
2023-04-11T10:14:41.957Z,100774.63
2023-04-11T10:17:18.552Z,100777.25
2023-04-11T10:20:00.200Z,100776.28
2023-04-11T10:22:44.126Z,100757.63
2023-04-11T10:25:17.096Z,100769.00
2023-04-11T10:27:50.079Z,100763.75
2023-04-11T10:30:19.355Z,100763.69
2023-04-11T10:33:09.981Z,100752.03
2023-04-11T10:36:05.423Z,100751.09
2023-04-11T10:38:49.214Z,100748.34
2023-04-11T10:41:28.798Z,100739.69
2023-04-11T10:44:23.500Z,100728.13
2023-04-11T10:46:54.629Z,100722.75
2023-04-11T10:49:40.008Z,100722.47
2023-04-11T10:52:23.195Z,100717.97
2023-04-11T10:54:52.954Z,100715.31
2023-04-11T10:57:23.171Z,100709.06
2023-04-11T10:59:51.618Z,100715.06
2023-04-11T11:02:22.307Z,100704.31
2023-04-11T11:04:51.415Z,100718.41
2023-04-11T11:07:20.066Z,100714.03
2023-04-11T11:09:49.676Z,100711.69
2023-04-11T11:12:18.301Z,100706.41
2023-04-11T11:14:47.699Z,100704.56
2023-04-11T11:17:17.365Z,100705.38
2023-04-11T11:19:46.814Z,100687.75
2023-04-11T11:22:25.956Z,100684.38
2023-04-11T11:24:54.421Z,100702.09
2023-04-11T11:27:25.113Z,100695.00
2023-04-11T11:29:53.912Z,100684.31
2023-04-11T11:32:33.145Z,100691.16
2023-04-11T11:35:13.222Z,100689.31
2023-04-11T11:37:42.365Z,100671.47
2023-04-11T11:40:14.363Z,100673.03
2023-04-11T11:42:42.982Z,100684.28
2023-04-11T11:45:15.924Z,100670.50
2023-04-11T11:47:46.546Z,100680.19
2023-04-11T11:50:32.916Z,100679.50
2023-04-11T11:53:16.848Z,100672.31
2023-04-11T11:55:45.209Z,100674.19
2023-04-11T11:58:14.058Z,100661.94
2023-04-11T12:00:42.352Z,100671.38
2023-04-11T12:03:11.230Z,100662.47
2023-04-11T12:05:39.554Z,100654.50
2023-04-11T12:08:09.090Z,100659.97
2023-04-11T12:10:42.372Z,100657.50
2023-04-11T12:13:31.329Z,100654.66
2023-04-11T12:16:01.806Z,100654.50
2023-04-11T12:18:30.433Z,100649.84
2023-04-11T12:20:58.958Z,100633.97
2023-04-11T12:23:27.611Z,100640.28
2023-04-11T12:25:55.898Z,100634.97
2023-04-11T12:28:24.440Z,100638.34
2023-04-11T12:30:52.705Z,100631.25
2023-04-11T12:33:22.703Z,100622.59
2023-04-11T12:35:50.919Z,100627.00
2023-04-11T12:38:19.478Z,100623.47
2023-04-11T12:40:47.728Z,100621.63
2023-04-11T12:43:16.486Z,100604.69
2023-04-11T12:45:44.798Z,100606.41
2023-04-11T12:48:13.390Z,100606.41
2023-04-11T12:50:41.760Z,100604.69
2023-04-11T12:53:10.635Z,100593.91
2023-04-11T12:55:38.914Z,100595.53
2023-04-11T12:58:10.856Z,100586.63
2023-04-11T13:00:39.022Z,100576.13
2023-04-11T13:03:08.086Z,100567.22
2023-04-11T13:05:37.422Z,100568.22
2023-04-11T13:08:06.164Z,100561.91
2023-04-11T13:10:34.380Z,100554.78
2023-04-11T13:13:11.852Z,100537.31
2023-04-11T13:15:46.546Z,100535.31
2023-04-11T13:18:15.067Z,100524.81
2023-04-11T13:20:43.312Z,100513.25
2023-04-11T13:23:11.933Z,100522.97
2023-04-11T13:25:40.132Z,100516.78
2023-04-11T13:28:09.035Z,100518.44
2023-04-11T13:30:37.311Z,100518.31
2023-04-11T13:33:06.023Z,100516.47
2023-04-11T13:35:34.261Z,100514.78
2023-04-11T13:38:03.504Z,100502.25
2023-04-11T13:40:31.774Z,100509.31
2023-04-11T13:43:00.877Z,100504.78
2023-04-11T13:45:29.140Z,100503.84
2023-04-11T13:47:58.385Z,100503.94
2023-04-11T13:50:26.737Z,100492.28
2023-04-11T13:52:55.409Z,100485.19
2023-04-11T13:55:23.858Z,100488.78
2023-04-11T13:57:52.628Z,100481.88
2023-04-11T14:00:22.167Z,100474.81
2023-04-11T14:02:52.400Z,100488.91
2023-04-11T14:05:21.214Z,100488.91
2023-04-11T14:07:49.786Z,100488.78
2023-04-11T14:10:18.109Z,100473.97
2023-04-11T14:12:47.140Z,100478.28
2023-04-11T14:15:15.364Z,100481.59
2023-04-11T14:17:44.315Z,100477.06
2023-04-11T14:20:13.454Z,100475.28
2023-04-11T14:22:45.866Z,100479.72
2023-04-11T14:25:16.032Z,100485.13
2023-04-11T14:27:45.063Z,100483.38
2023-04-11T14:30:13.550Z,100479.72
2023-04-11T14:32:42.451Z,100467.22
2023-04-11T14:35:10.994Z,100454.09
2023-04-11T14:37:39.684Z,100440.94
2023-04-11T14:40:11.280Z,100436.53
2023-04-11T14:42:40.508Z,100428.56
2023-04-11T14:45:08.912Z,100439.84
2023-04-11T14:47:37.927Z,100432.81
2023-04-11T14:50:07.540Z,100432.88
2023-04-11T14:52:36.155Z,100437.94
2023-04-11T14:55:04.708Z,100435.22
2023-04-11T14:57:46.119Z,100430.72
2023-04-11T15:00:21.485Z,100437.72
2023-04-11T15:02:53.123Z,100421.78
2023-04-11T15:05:23.448Z,100417.09
2023-04-11T15:07:53.286Z,100420.69
2023-04-11T15:10:23.403Z,100416.09
2023-04-11T15:12:52.127Z,100414.22
2023-04-11T15:15:20.610Z,100419.56
2023-04-11T15:17:50.568Z,100415.97
2023-04-11T15:20:20.379Z,100412.50
2023-04-11T15:22:49.005Z,100415.31
2023-04-11T15:25:17.214Z,100410.06
2023-04-11T15:27:45.810Z,100421.47
2023-04-11T15:30:14.081Z,100412.50
2023-04-11T15:32:44.017Z,100415.25
2023-04-11T15:35:12.489Z,100410.78
2023-04-11T15:37:41.769Z,100401.00
2023-04-11T15:40:12.565Z,100406.31
2023-04-11T15:42:44.002Z,100405.53
2023-04-11T15:45:12.435Z,100405.31
2023-04-11T15:47:40.984Z,100395.53
2023-04-11T15:50:09.827Z,100388.38
2023-04-11T15:52:38.493Z,100390.94
2023-04-11T15:55:07.728Z,100381.31
2023-04-11T15:57:36.610Z,100375.13
2023-04-11T16:00:09.788Z,100390.88
2023-04-11T16:02:38.551Z,100389.91
2023-04-11T16:05:07.959Z,100393.53
2023-04-11T16:07:36.625Z,100394.16
2023-04-11T16:10:05.217Z,100391.50
2023-04-11T16:12:34.789Z,100392.34
2023-04-11T16:15:07.290Z,100390.72
2023-04-11T16:17:36.097Z,100395.13
2023-04-11T16:20:10.429Z,100392.25
2023-04-11T16:22:40.585Z,100403.59
2023-04-11T16:25:09.104Z,100399.16
2023-04-11T16:27:38.280Z,100387.50
2023-04-11T16:30:08.044Z,100388.28
2023-04-11T16:32:37.122Z,100385.63
2023-04-11T16:35:06.087Z,100383.72
2023-04-11T16:37:35.528Z,100380.44
2023-04-11T16:40:07.908Z,100371.53
2023-04-11T16:42:38.539Z,100368.22
2023-04-11T16:45:08.209Z,100375.19
2023-04-11T16:47:36.926Z,100371.69
2023-04-11T16:50:06.376Z,100368.16
2023-04-11T16:52:35.411Z,100375.56
2023-04-11T16:55:04.226Z,100369.25
2023-04-11T16:57:33.638Z,100365.72
2023-04-11T17:00:13.525Z,100360.31
2023-04-11T17:02:42.830Z,100357.88
2023-04-11T17:05:11.450Z,100359.00
2023-04-11T17:07:40.095Z,100353.44
2023-04-11T17:10:09.041Z,100358.81
2023-04-11T17:12:37.897Z,100365.25
2023-04-11T17:15:08.627Z,100364.41
2023-04-11T17:17:38.058Z,100359.22
2023-04-11T17:20:09.840Z,100344.56
2023-04-11T17:22:41.617Z,100351.63
2023-04-11T17:25:10.587Z,100344.72
2023-04-11T17:27:40.237Z,100341.31
2023-04-11T17:30:12.486Z,100350.22
2023-04-11T17:32:41.441Z,100355.53
2023-04-11T17:35:09.967Z,100353.97
2023-04-11T17:37:39.906Z,100353.25
2023-04-11T17:40:12.788Z,100356.78
2023-04-11T17:42:42.288Z,100353.31
2023-04-11T17:47:45.120Z,100357.84
2023-04-11T17:50:14.461Z,100365.13
2023-04-11T17:52:45.198Z,100359.91
2023-04-11T17:55:18.363Z,100353.72
2023-04-11T17:57:50.853Z,100357.31
2023-04-11T18:00:23.673Z,100361.78
2023-04-11T18:02:55.053Z,100367.09
2023-04-11T18:05:27.116Z,100368.09
2023-04-11T18:07:57.944Z,100365.50
2023-04-11T18:10:27.824Z,100365.50
2023-04-11T18:12:57.877Z,100365.66
2023-04-11T18:15:27.320Z,100364.78
2023-04-11T18:17:56.426Z,100372.84
2023-04-11T18:20:25.297Z,100377.88
2023-04-11T18:22:56.412Z,100383.03
2023-04-11T18:25:24.952Z,100388.38
2023-04-11T18:27:53.473Z,100393.53
2023-04-11T18:30:22.448Z,100392.44
2023-04-11T18:32:54.030Z,100388.91
2023-04-11T18:35:23.896Z,100395.66
2023-04-11T18:37:53.657Z,100400.13
2023-04-11T18:40:22.224Z,100393.00
2023-04-11T18:42:52.956Z,100399.09
2023-04-11T18:45:22.500Z,100402.69
2023-04-11T18:47:51.361Z,100410.59
2023-04-11T18:50:20.434Z,100414.06
2023-04-11T18:52:52.772Z,100413.34
2023-04-11T18:55:24.665Z,100413.19
2023-04-11T18:57:57.069Z,100418.44
2023-04-11T19:00:30.234Z,100425.50
2023-04-11T19:02:59.731Z,100420.06
2023-04-11T19:05:33.429Z,100414.84
2023-04-11T19:08:03.198Z,100420.25
2023-04-11T19:10:34.242Z,100426.72
2023-04-11T19:13:02.779Z,100432.31
2023-04-11T19:15:31.749Z,100437.88
2023-04-11T19:18:03.200Z,100438.75
2023-04-11T19:20:33.498Z,100438.03
2023-04-11T19:23:02.966Z,100440.81
2023-04-11T19:25:32.995Z,100432.91
2023-04-11T19:28:02.464Z,100431.19
2023-04-11T19:30:32.004Z,100444.41
2023-04-11T19:33:02.304Z,100440.09
2023-04-11T19:35:33.539Z,100443.69
2023-04-11T19:38:06.695Z,100457.78
2023-04-11T19:40:37.305Z,100461.38
2023-04-11T19:43:08.686Z,100467.56
2023-04-11T19:45:39.130Z,100461.38
2023-04-11T19:48:08.873Z,100458.72
2023-04-11T19:50:38.446Z,100456.97
2023-04-11T19:53:08.466Z,100455.25
2023-04-11T19:55:41.498Z,100451.81
2023-04-11T19:58:10.416Z,100452.59
2023-04-11T20:00:39.157Z,100463.22
2023-04-11T20:03:12.805Z,100451.66
2023-04-11T20:05:42.644Z,100454.31
2023-04-11T20:08:11.129Z,100452.66
2023-04-11T20:10:41.632Z,100450.06
2023-04-11T20:13:10.529Z,100451.00
2023-04-11T20:15:39.438Z,100463.38
2023-04-11T20:18:12.717Z,100465.09
2023-04-11T20:20:41.509Z,100465.09
2023-04-11T20:23:10.677Z,100458.91
2023-04-11T20:25:39.458Z,100455.41
2023-04-11T20:28:07.885Z,100460.78
2023-04-11T20:30:39.115Z,100469.63
2023-04-11T20:33:08.017Z,100466.09
2023-04-11T20:35:37.183Z,100468.75
2023-04-11T20:38:08.186Z,100471.41
2023-04-11T20:40:41.420Z,100482.91
2023-04-11T20:43:10.803Z,100488.22
2023-04-11T20:45:40.860Z,100483.94
2023-04-11T20:48:09.225Z,100488.22
2023-04-11T20:50:38.970Z,100484.81
2023-04-11T20:53:09.998Z,100488.34
2023-04-11T20:55:43.656Z,100490.03
2023-04-11T20:58:14.412Z,100489.19
2023-04-11T21:00:43.533Z,100490.22
2023-04-11T21:03:12.522Z,100491.06
2023-04-11T21:05:44.417Z,100486.63
2023-04-11T21:08:13.442Z,100486.63
2023-04-11T21:10:42.045Z,100499.06
2023-04-11T21:13:10.631Z,100500.78
2023-04-11T21:15:39.501Z,100502.59
2023-04-11T21:18:07.897Z,100504.34
2023-04-11T21:20:36.538Z,100508.78
2023-04-11T21:23:04.830Z,100500.88
2023-04-11T21:25:33.334Z,100509.69
2023-04-11T21:28:01.728Z,100511.50
2023-04-11T21:30:30.917Z,100507.91
2023-04-11T21:32:59.041Z,100509.69
2023-04-11T21:35:27.707Z,100511.50
2023-04-11T21:37:55.949Z,100504.44
2023-04-11T21:40:24.554Z,100513.22
2023-04-11T21:42:53.103Z,100507.91
2023-04-11T21:45:23.554Z,100511.50
2023-04-11T21:47:52.039Z,100500.88
2023-04-11T21:50:20.840Z,100492.09
2023-04-11T21:52:49.081Z,100495.53
2023-04-11T21:55:17.629Z,100493.81
2023-04-11T21:57:46.160Z,100499.13
2023-04-11T22:00:15.708Z,100500.00
2023-04-11T22:02:44.136Z,100498.22
2023-04-11T22:05:12.974Z,100503.53
2023-04-11T22:07:47.722Z,100500.88
2023-04-11T22:10:22.972Z,100498.28
2023-04-11T22:12:54.770Z,100493.81
2023-04-11T22:15:24.598Z,100485.06
2023-04-11T22:17:56.778Z,100486.78
2023-04-11T22:20:25.487Z,100486.78
2023-04-11T22:22:53.878Z,100488.50
2023-04-11T22:25:22.862Z,100480.59
2023-04-11T22:27:54.586Z,100486.78
2023-04-11T22:30:24.564Z,100485.84
2023-04-11T22:32:54.585Z,100481.47
2023-04-11T22:35:26.245Z,100466.38
2023-04-11T22:37:57.411Z,100477.94
2023-04-11T22:40:26.038Z,100472.69
2023-04-11T22:42:54.468Z,100474.41
2023-04-11T22:45:23.816Z,100486.78
2023-04-11T22:47:54.666Z,100481.47
2023-04-11T22:50:24.168Z,100478.94
2023-04-11T22:52:52.492Z,100489.44
2023-04-11T22:55:21.408Z,100487.72
2023-04-11T22:57:49.584Z,100482.38
2023-04-11T23:00:19.153Z,100485.06
2023-04-11T23:02:47.568Z,100484.13
2023-04-11T23:05:17.013Z,100494.81
2023-04-11T23:07:45.348Z,100488.63
2023-04-11T23:10:15.613Z,100481.59
2023-04-11T23:12:44.665Z,100481.59
2023-04-11T23:15:13.477Z,100482.38
2023-04-11T23:17:41.711Z,100488.63
2023-04-11T23:20:13.960Z,100489.50
2023-04-11T23:22:42.706Z,100479.88
2023-04-11T23:25:12.928Z,100494.81
2023-04-11T23:27:44.514Z,100488.63
2023-04-11T23:30:15.268Z,100497.53
2023-04-11T23:32:43.770Z,100497.47
2023-04-11T23:35:13.053Z,100488.63
2023-04-11T23:37:41.327Z,100494.88
2023-04-11T23:40:11.536Z,100486.91
2023-04-11T23:42:41.182Z,100486.91
2023-04-11T23:45:11.572Z,100485.19
2023-04-11T23:47:39.929Z,100477.22
2023-04-11T23:50:09.028Z,100474.56
2023-04-11T23:52:37.278Z,100468.44
2023-04-11T23:55:07.732Z,100464.00
2023-04-11T23:57:36.237Z,100456.94
